createdAt,value
2018-09-04T00:00:00.951Z,93.02
2018-09-04T00:01:00.930Z,93.40
2018-09-04T00:02:00.910Z,92.82
2018-09-04T00:03:00.892Z,92.73
2018-09-04T00:04:00.875Z,92.25
2018-09-04T00:05:00.853Z,92.54
2018-09-04T00:06:00.833Z,91.77
2018-09-04T00:07:00.813Z,92.06
2018-09-04T00:08:00.795Z,92.15
2018-09-04T00:09:00.776Z,92.25
2018-09-04T00:10:00.758Z,92.35
2018-09-04T00:11:00.739Z,91.77
2018-09-04T00:12:00.718Z,92.15
2018-09-04T00:13:00.700Z,91.34
2018-09-04T00:14:00.681Z,91.58
2018-09-04T00:15:00.661Z,90.96
2018-09-04T00:16:00.691Z,90.39
2018-09-04T00:17:00.623Z,90.33
2018-09-04T00:18:00.603Z,89.76
2018-09-04T00:19:00.584Z,89.95
2018-09-04T00:20:00.565Z,89.95
2018-09-04T00:21:00.545Z,89.76
2018-09-04T00:22:00.526Z,89.86
2018-09-04T00:23:00.509Z,89.81
2018-09-04T00:24:00.492Z,89.37
2018-09-04T00:25:00.470Z,88.99
2018-09-04T00:26:00.449Z,89.43
2018-09-04T00:27:00.432Z,89.23
2018-09-04T00:28:00.413Z,89.43
2018-09-04T00:29:00.394Z,88.66
2018-09-04T00:30:00.373Z,88.28
2018-09-04T00:31:00.353Z,88.03
2018-09-04T00:32:00.333Z,88.09
2018-09-04T00:33:00.314Z,88.37
2018-09-04T00:34:00.294Z,88.28
2018-09-04T00:35:00.275Z,88.47
2018-09-04T00:36:00.256Z,88.09
2018-09-04T00:37:00.237Z,88.37
2018-09-04T00:38:00.218Z,88.09
2018-09-04T00:39:00.198Z,87.61
2018-09-04T00:40:00.184Z,87.90
2018-09-04T00:41:00.160Z,88.09
2018-09-04T00:42:00.140Z,88.09
2018-09-04T00:43:00.121Z,87.13
2018-09-04T00:44:00.102Z,87.23
2018-09-04T00:45:00.083Z,86.94
2018-09-04T00:46:00.065Z,87.03
2018-09-04T00:47:00.043Z,86.27
2018-09-04T00:48:00.027Z,86.17
2018-09-04T00:49:00.005Z,86.74
2018-09-04T00:49:59.986Z,85.98
2018-09-04T00:50:59.965Z,85.50
2018-09-04T00:51:59.946Z,84.64
2018-09-04T00:52:59.929Z,83.78
2018-09-04T00:53:59.908Z,83.11
2018-09-04T00:54:59.892Z,82.73
2018-09-04T00:55:59.869Z,82.24
2018-09-04T00:56:59.849Z,82.15
2018-09-04T00:57:59.830Z,81.96
2018-09-04T00:58:59.896Z,82.15
2018-09-04T00:59:59.791Z,82.24
2018-09-04T01:00:59.772Z,82.06
2018-09-04T01:01:59.752Z,82.34
2018-09-04T01:02:59.734Z,82.34
2018-09-04T01:03:59.714Z,82.92
2018-09-04T01:04:59.695Z,83.30
2018-09-04T01:05:59.674Z,82.92
2018-09-04T01:06:59.658Z,83.59
2018-09-04T01:07:59.635Z,83.01
2018-09-04T01:08:59.617Z,83.11
2018-09-04T01:09:59.596Z,83.78
2018-09-04T01:10:59.576Z,83.11
2018-09-04T01:11:59.562Z,83.68
2018-09-04T01:13:00.290Z,83.39
2018-09-04T01:13:59.519Z,83.97
2018-09-04T01:14:59.499Z,84.06
2018-09-04T01:15:59.482Z,84.26
2018-09-04T01:16:59.461Z,83.39
2018-09-04T01:17:59.439Z,83.68
2018-09-04T01:18:59.422Z,82.92
2018-09-04T01:19:59.402Z,82.53
2018-09-04T01:20:59.385Z,81.96
2018-09-04T01:21:59.366Z,81.96
2018-09-04T01:22:59.342Z,81.38
2018-09-04T01:23:59.323Z,80.81
2018-09-04T01:24:59.304Z,81.00
2018-09-04T01:25:59.283Z,81.00
2018-09-04T01:26:59.266Z,80.52
2018-09-04T01:27:59.245Z,79.66
2018-09-04T01:28:59.229Z,79.08
2018-09-04T01:29:59.205Z,79.08
2018-09-04T01:30:59.186Z,79.52
2018-09-04T01:31:59.167Z,78.99
2018-09-04T01:32:59.147Z,78.32
2018-09-04T01:33:59.126Z,77.84
2018-09-04T01:34:59.107Z,78.03
2018-09-04T01:35:59.088Z,78.32
2018-09-04T01:36:59.069Z,78.03
2018-09-04T01:37:59.048Z,77.65
2018-09-04T01:38:59.029Z,77.75
2018-09-04T01:39:59.009Z,78.32
2018-09-04T01:40:58.991Z,78.13
2018-09-04T01:41:58.970Z,77.94
2018-09-04T01:42:58.951Z,77.75
2018-09-04T01:43:58.935Z,78.13
2018-09-04T01:44:58.915Z,77.46
2018-09-04T01:45:58.892Z,77.08
2018-09-04T01:46:58.871Z,77.84
2018-09-04T01:47:58.852Z,78.03
2018-09-04T01:48:58.833Z,77.84
2018-09-04T01:49:58.813Z,77.75
2018-09-04T01:50:58.793Z,77.94
2018-09-04T01:51:58.774Z,78.13
2018-09-04T01:52:58.754Z,78.13
2018-09-04T01:53:58.735Z,77.46
2018-09-04T01:54:58.721Z,77.94
2018-09-04T01:55:59.448Z,78.32
2018-09-04T01:56:58.680Z,79.28
2018-09-04T01:57:58.655Z,79.57
2018-09-04T01:58:58.636Z,79.47
2018-09-04T01:59:58.620Z,79.37
2018-09-04T02:00:58.598Z,78.99
2018-09-04T02:01:58.577Z,78.32
2018-09-04T02:02:58.557Z,78.42
2018-09-04T02:03:58.538Z,78.32
2018-09-04T02:04:58.522Z,78.13
2018-09-04T02:05:58.512Z,78.51
2018-09-04T02:06:58.478Z,78.89
2018-09-04T02:07:58.460Z,78.51
2018-09-04T02:08:58.440Z,78.70
2018-09-04T02:09:58.420Z,78.70
2018-09-04T02:10:58.403Z,78.51
2018-09-04T02:11:58.380Z,78.03
2018-09-04T02:12:58.363Z,78.13
2018-09-04T02:13:58.341Z,78.51
2018-09-04T02:14:58.324Z,78.32
2018-09-04T02:15:58.302Z,77.55
2018-09-04T02:16:58.286Z,77.84
2018-09-04T02:17:58.262Z,78.13
2018-09-04T02:18:58.243Z,77.75
2018-09-04T02:19:58.224Z,77.17
2018-09-04T02:20:58.205Z,77.17
2018-09-04T02:21:58.187Z,77.08
2018-09-04T02:22:58.165Z,77.08
2018-09-04T02:23:58.146Z,77.26
2018-09-04T02:24:58.128Z,77.17
2018-09-04T02:25:58.107Z,76.89
2018-09-04T02:26:58.087Z,77.08
2018-09-04T02:27:58.067Z,76.98
2018-09-04T02:28:58.049Z,77.26
2018-09-04T02:29:58.028Z,77.08
2018-09-04T02:30:58.010Z,76.98
2018-09-04T02:31:57.991Z,77.08
2018-09-04T02:32:58.735Z,75.93
2018-09-04T02:33:57.951Z,76.02
2018-09-04T02:34:57.986Z,75.35
2018-09-04T02:35:57.913Z,75.16
2018-09-04T02:36:57.893Z,74.30
2018-09-04T02:37:57.873Z,74.11
2018-09-04T02:38:57.856Z,73.79
2018-09-04T02:39:57.835Z,73.34
2018-09-04T02:40:57.830Z,72.67
2018-09-04T02:41:57.794Z,71.71
2018-09-04T02:42:57.776Z,71.71
2018-09-04T02:43:57.756Z,71.30
2018-09-04T02:44:57.738Z,71.04
2018-09-04T02:45:57.717Z,71.39
2018-09-04T02:46:57.697Z,71.11
2018-09-04T02:47:57.678Z,70.91
2018-09-04T02:48:57.663Z,71.42
2018-09-04T02:49:57.638Z,71.42
2018-09-04T02:50:57.618Z,71.30
2018-09-04T02:51:57.599Z,71.11
2018-09-04T02:52:57.579Z,70.76
2018-09-04T02:53:57.561Z,71.01
2018-09-04T02:54:57.540Z,71.04
2018-09-04T02:55:57.524Z,71.23
2018-09-04T02:56:57.501Z,70.66
2018-09-04T02:57:57.483Z,70.91
2018-09-04T02:58:57.463Z,70.18
2018-09-04T02:59:57.443Z,70.28
2018-09-04T03:00:57.423Z,70.09
2018-09-04T03:01:57.401Z,69.42
2018-09-04T03:02:57.391Z,69.29
2018-09-04T03:03:57.362Z,69.09
2018-09-04T03:04:57.343Z,69.00
2018-09-04T03:05:57.323Z,68.46
2018-09-04T03:06:57.304Z,68.46
2018-09-04T03:07:57.286Z,68.13
2018-09-04T03:08:59.520Z,68.23
2018-09-04T03:09:57.244Z,67.85
2018-09-04T03:10:57.224Z,67.47
2018-09-04T03:11:57.206Z,67.37
2018-09-04T03:12:57.186Z,66.70
2018-09-04T03:13:57.291Z,66.93
2018-09-04T03:14:57.145Z,66.13
2018-09-04T03:15:57.127Z,66.03
2018-09-04T03:16:57.107Z,65.94
2018-09-04T03:17:57.087Z,66.03
2018-09-04T03:18:57.066Z,65.74
2018-09-04T03:19:57.046Z,65.36
2018-09-04T03:20:57.028Z,65.36
2018-09-04T03:21:57.006Z,65.45
2018-09-04T03:22:56.992Z,65.45
2018-09-04T03:23:56.967Z,64.88
2018-09-04T03:24:56.949Z,64.79
2018-09-04T03:25:56.933Z,64.79
2018-09-04T03:26:56.910Z,64.88
2018-09-04T03:27:56.893Z,64.88
2018-09-04T03:28:56.868Z,64.40
2018-09-04T03:29:56.847Z,64.31
2018-09-04T03:30:56.855Z,63.73
2018-09-04T03:31:56.811Z,63.93
2018-09-04T03:32:56.790Z,63.64
2018-09-04T03:33:56.770Z,63.73
2018-09-04T03:34:56.749Z,63.54
2018-09-04T03:35:56.733Z,63.93
2018-09-04T03:36:56.712Z,63.83
2018-09-04T03:37:56.690Z,64.40
2018-09-04T03:38:56.671Z,64.12
2018-09-04T03:39:56.652Z,63.54
2018-09-04T03:40:56.633Z,63.83
2018-09-04T03:41:56.610Z,63.35
2018-09-04T03:42:56.599Z,63.45
2018-09-04T03:43:56.574Z,62.97
2018-09-04T03:44:56.552Z,63.16
2018-09-04T03:45:56.531Z,63.16
2018-09-04T03:46:56.513Z,63.57
2018-09-04T03:47:56.492Z,63.45
2018-09-04T03:48:56.473Z,63.35
2018-09-04T03:49:56.456Z,63.45
2018-09-04T03:50:56.434Z,63.48
2018-09-04T03:51:56.417Z,63.35
2018-09-04T03:52:56.395Z,62.59
2018-09-04T03:53:56.373Z,62.33
2018-09-04T03:54:56.353Z,62.49
2018-09-04T03:55:56.334Z,62.30
2018-09-04T03:56:56.315Z,62.43
2018-09-04T03:57:56.295Z,62.62
2018-09-04T03:58:56.276Z,62.40
2018-09-04T03:59:56.255Z,62.43
2018-09-04T04:00:56.236Z,62.52
2018-09-04T04:01:56.215Z,61.63
2018-09-04T04:02:56.197Z,62.33
2018-09-04T04:03:56.176Z,62.04
2018-09-04T04:04:56.158Z,61.94
2018-09-04T04:05:56.137Z,61.85
2018-09-04T04:06:56.120Z,62.04
2018-09-04T04:07:56.098Z,62.62
2018-09-04T04:08:56.079Z,62.59
2018-09-04T04:09:56.058Z,62.68
2018-09-04T04:10:56.039Z,62.68
2018-09-04T04:11:56.101Z,62.62
2018-09-04T04:12:56.000Z,62.43
2018-09-04T04:13:55.979Z,62.59
2018-09-04T04:14:55.961Z,61.54
2018-09-04T04:15:55.940Z,61.94
2018-09-04T04:16:55.921Z,61.85
2018-09-04T04:17:55.900Z,62.33
2018-09-04T04:18:55.882Z,62.33
2018-09-04T04:19:55.862Z,62.97
2018-09-04T04:20:55.882Z,63.64
2018-09-04T04:21:55.823Z,63.54
2018-09-04T04:22:55.804Z,63.64
2018-09-04T04:23:55.917Z,63.35
2018-09-04T04:24:55.765Z,63.16
2018-09-04T04:25:55.744Z,63.26
2018-09-04T04:26:55.725Z,62.59
2018-09-04T04:27:55.705Z,62.40
2018-09-04T04:28:55.685Z,61.54
2018-09-04T04:29:55.665Z,61.54
2018-09-04T04:30:55.645Z,61.91
2018-09-04T04:31:55.626Z,61.54
2018-09-04T04:32:55.655Z,61.63
2018-09-04T04:33:55.586Z,61.91
2018-09-04T04:34:55.566Z,60.86
2018-09-04T04:35:55.548Z,61.15
2018-09-04T04:36:55.528Z,61.05
2018-09-04T04:37:55.507Z,61.05
2018-09-04T04:38:55.488Z,61.15
2018-09-04T04:39:55.489Z,61.25
2018-09-04T04:40:55.448Z,60.86
2018-09-04T04:41:55.427Z,60.38
2018-09-04T04:42:55.408Z,60.32
2018-09-04T04:43:55.389Z,59.91
2018-09-04T04:44:55.370Z,59.91
2018-09-04T04:45:55.351Z,59.81
2018-09-04T04:46:55.332Z,59.62
2018-09-04T04:47:55.317Z,59.81
2018-09-04T04:48:55.292Z,60.10
2018-09-04T04:49:55.270Z,59.81
2018-09-04T04:50:55.250Z,59.81
2018-09-04T04:51:55.231Z,59.81
2018-09-04T04:52:55.212Z,58.76
2018-09-04T04:53:55.192Z,58.95
2018-09-04T04:54:55.172Z,58.28
2018-09-04T04:55:55.156Z,58.66
2018-09-04T04:56:55.134Z,58.56
2018-09-04T04:57:55.113Z,58.66
2018-09-04T04:58:55.094Z,58.86
2018-09-04T04:59:56.577Z,59.33
2018-09-04T05:00:55.054Z,59.05
2018-09-04T05:01:55.040Z,59.23
2018-09-04T05:02:55.016Z,58.95
2018-09-04T05:03:54.994Z,59.52
2018-09-04T05:04:54.977Z,60.10
2018-09-04T05:05:55.706Z,59.81
2018-09-04T05:06:54.936Z,60.10
2018-09-04T05:07:54.916Z,60.48
2018-09-04T05:08:54.898Z,60.19
2018-09-04T05:09:54.877Z,60.58
2018-09-04T05:10:54.861Z,61.15
2018-09-04T05:11:54.838Z,61.25
2018-09-04T05:12:54.817Z,61.15
2018-09-04T05:13:54.797Z,60.77
2018-09-04T05:14:54.777Z,60.96
2018-09-04T05:15:54.757Z,60.67
2018-09-04T05:16:56.243Z,59.81
2018-09-04T05:17:54.719Z,59.23
2018-09-04T05:18:54.699Z,58.18
2018-09-04T05:19:54.680Z,57.80
2018-09-04T05:20:54.660Z,57.99
2018-09-04T05:21:54.639Z,58.09
2018-09-04T05:22:55.372Z,57.80
2018-09-04T05:23:54.600Z,58.28
2018-09-04T05:24:54.581Z,58.09
2018-09-04T05:25:54.560Z,59.23
2018-09-04T05:26:54.540Z,59.91
2018-09-04T05:27:54.521Z,60.19
2018-09-04T05:28:54.502Z,60.48
2018-09-04T05:29:54.481Z,60.38
2018-09-04T05:30:54.462Z,60.38
2018-09-04T05:31:54.443Z,59.81
2018-09-04T05:32:54.425Z,60.19
2018-09-04T05:33:54.403Z,59.62
2018-09-04T05:34:54.382Z,59.14
2018-09-04T05:35:54.363Z,58.86
2018-09-04T05:36:54.349Z,58.18
2018-09-04T05:37:54.325Z,58.18
2018-09-04T05:38:57.306Z,58.37
2018-09-04T05:39:54.288Z,57.99
2018-09-04T05:40:54.264Z,57.23
2018-09-04T05:41:54.245Z,57.42
2018-09-04T05:42:54.225Z,56.56
2018-09-04T05:43:54.206Z,56.75
2018-09-04T05:44:54.228Z,56.75
2018-09-04T05:45:54.166Z,57.23
2018-09-04T05:46:54.146Z,57.13
2018-09-04T05:47:54.133Z,57.23
2018-09-04T05:48:54.107Z,57.61
2018-09-04T05:49:54.085Z,57.70
2018-09-04T05:50:54.064Z,57.42
2018-09-04T05:51:54.047Z,57.32
2018-09-04T05:52:54.026Z,57.23
2018-09-04T05:53:54.005Z,56.75
2018-09-04T05:54:53.986Z,56.08
2018-09-04T05:55:53.965Z,55.88
2018-09-04T05:56:53.948Z,55.98
2018-09-04T05:57:53.926Z,55.60
2018-09-04T05:58:53.907Z,55.22
2018-09-04T05:59:53.886Z,54.74
2018-09-04T06:00:53.869Z,54.93
2018-09-04T06:01:53.846Z,54.83
2018-09-04T06:02:53.827Z,54.93
2018-09-04T06:03:53.808Z,55.12
2018-09-04T06:04:53.787Z,55.02
2018-09-04T06:05:53.767Z,55.12
2018-09-04T06:06:54.499Z,55.31
2018-09-04T06:07:53.728Z,55.41
2018-09-04T06:08:53.707Z,55.60
2018-09-04T06:09:53.689Z,55.79
2018-09-04T06:10:53.667Z,55.69
2018-09-04T06:11:53.649Z,55.98
2018-09-04T06:12:53.629Z,56.17
2018-09-04T06:13:53.609Z,55.88
2018-09-04T06:14:53.589Z,56.08
2018-09-04T06:15:53.570Z,55.82
2018-09-04T06:16:53.549Z,56.10
2018-09-04T06:17:53.528Z,56.27
2018-09-04T06:18:53.508Z,56.49
2018-09-04T06:19:53.515Z,57.73
2018-09-04T06:20:53.470Z,58.22
2018-09-04T06:21:53.450Z,58.31
2018-09-04T06:22:53.430Z,58.31
2018-09-04T06:23:53.410Z,58.40
2018-09-04T06:24:53.391Z,58.50
2018-09-04T06:25:53.373Z,58.22
2018-09-04T06:26:53.353Z,58.88
2018-09-04T06:27:58.588Z,59.17
2018-09-04T06:28:53.314Z,59.65
2018-09-04T06:29:53.294Z,59.84
2018-09-04T06:30:53.276Z,59.94
2018-09-04T06:31:53.255Z,60.13
2018-09-04T06:32:53.236Z,61.18
2018-09-04T06:33:54.719Z,63.39
2018-09-04T06:34:53.196Z,65.01
2018-09-04T06:35:53.177Z,65.39
2018-09-04T06:36:53.158Z,65.30
2018-09-04T06:37:53.137Z,65.20
2018-09-04T06:38:53.117Z,67.63
2018-09-04T06:39:58.353Z,69.26
2018-09-04T06:40:53.078Z,69.45
2018-09-04T06:41:53.059Z,70.70
2018-09-04T06:42:53.039Z,71.27
2018-09-04T06:43:53.021Z,70.98
2018-09-04T06:44:53.001Z,71.56
2018-09-04T06:45:52.981Z,70.70
2018-09-04T06:46:52.962Z,72.03
2018-09-04T06:47:52.943Z,72.61
2018-09-04T06:48:52.923Z,78.55
2018-09-04T06:49:52.903Z,78.74
2018-09-04T06:50:52.884Z,77.21
2018-09-04T06:51:52.865Z,80.27
2018-09-04T06:52:52.847Z,78.36
2018-09-04T06:53:52.831Z,76.06
2018-09-04T06:54:52.809Z,77.78
2018-09-04T06:55:52.789Z,77.50
2018-09-04T06:56:52.770Z,77.02
2018-09-04T06:57:52.825Z,76.82
2018-09-04T06:58:52.731Z,76.15
2018-09-04T06:59:52.710Z,75.68
2018-09-04T07:00:52.693Z,75.48
2018-09-04T07:01:52.671Z,76.73
2018-09-04T07:02:52.662Z,81.04
2018-09-04T07:03:52.634Z,82.38
2018-09-04T07:04:52.615Z,82.57
2018-09-04T07:05:52.637Z,80.66
2018-09-04T07:06:52.576Z,82.38
2018-09-04T07:07:52.558Z,82.29
2018-09-04T07:08:52.538Z,82.76
2018-09-04T07:09:52.517Z,82.76
2018-09-04T07:10:52.498Z,83.44
2018-09-04T07:11:52.479Z,83.82
2018-09-04T07:12:52.460Z,84.49
2018-09-04T07:13:52.441Z,86.02
2018-09-04T07:14:52.422Z,84.78
2018-09-04T07:15:52.403Z,86.16
2018-09-04T07:16:52.446Z,87.08
2018-09-04T07:17:52.365Z,86.54
2018-09-04T07:18:52.346Z,87.79
2018-09-04T07:19:52.325Z,89.51
2018-09-04T07:20:52.308Z,87.31
2018-09-04T07:21:52.286Z,86.45
2018-09-04T07:22:52.268Z,87.50
2018-09-04T07:23:52.299Z,87.02
2018-09-04T07:24:52.229Z,88.46
2018-09-04T07:25:52.208Z,87.79
2018-09-04T07:26:52.189Z,88.17
2018-09-04T07:27:52.173Z,88.08
2018-09-04T07:28:52.151Z,88.08
2018-09-04T07:29:52.132Z,87.88
2018-09-04T07:30:52.112Z,90.67
2018-09-04T07:31:52.093Z,90.52
2018-09-04T07:32:52.074Z,91.28
2018-09-04T07:33:52.054Z,92.63
2018-09-04T07:34:52.035Z,92.54
2018-09-04T07:35:52.016Z,92.44
2018-09-04T07:36:51.998Z,93.01
2018-09-04T07:37:51.978Z,94.07
2018-09-04T07:38:51.958Z,95.03
2018-09-04T07:39:51.944Z,95.60
2018-09-04T07:40:51.921Z,95.12
2018-09-04T07:41:51.954Z,95.51
2018-09-04T07:42:51.886Z,95.21
2018-09-04T07:43:52.617Z,95.79
2018-09-04T07:44:51.848Z,95.51
2018-09-04T07:45:51.824Z,95.21
2018-09-04T07:46:51.808Z,94.12
2018-09-04T07:47:51.789Z,96.03
2018-09-04T07:48:51.769Z,96.51
2018-09-04T07:49:51.749Z,97.09
2018-09-04T07:50:51.731Z,96.80
2018-09-04T07:51:51.712Z,96.80
2018-09-04T07:52:51.693Z,97.28
2018-09-04T07:53:51.752Z,98.43
2018-09-04T07:54:51.654Z,98.05
2018-09-04T07:55:51.636Z,98.14
2018-09-04T07:56:51.619Z,97.86
2018-09-04T07:57:51.599Z,98.33
2018-09-04T07:58:51.579Z,97.38
2018-09-04T07:59:51.561Z,96.42
2018-09-04T08:00:51.610Z,96.51
2018-09-04T08:01:51.523Z,96.61
2018-09-04T08:02:51.509Z,96.22
2018-09-04T08:03:51.489Z,96.89
2018-09-04T08:04:51.469Z,97.86
2018-09-04T08:05:51.448Z,97.28
2018-09-04T08:06:51.431Z,97.76
2018-09-04T08:07:51.414Z,97.47
2018-09-04T08:08:51.396Z,97.76
2018-09-04T08:09:51.375Z,96.80
2018-09-04T08:10:51.358Z,96.61
2018-09-04T08:11:51.341Z,96.61
2018-09-04T08:12:51.321Z,97.47
2018-09-04T08:13:51.299Z,96.89
2018-09-04T08:14:51.281Z,96.70
2018-09-04T08:15:51.262Z,97.28
2018-09-04T08:16:51.246Z,97.28
2018-09-04T08:17:51.225Z,97.47
2018-09-04T08:18:51.207Z,97.56
2018-09-04T08:19:51.188Z,97.56
2018-09-04T08:20:51.199Z,98.24
2018-09-04T08:21:51.148Z,97.66
2018-09-04T08:22:51.132Z,98.24
2018-09-04T08:23:51.112Z,97.66
2018-09-04T08:24:51.095Z,98.05
2018-09-04T08:25:51.074Z,98.82
2018-09-04T08:26:51.056Z,99.99
2018-09-04T08:27:51.037Z,99.99
2018-09-04T08:28:51.020Z,99.99
2018-09-04T08:29:50.999Z,99.99
2018-09-04T08:30:50.982Z,99.99
2018-09-04T08:31:50.962Z,99.99
2018-09-04T08:32:50.969Z,99.99
2018-09-04T08:33:50.925Z,99.99
2018-09-04T08:34:50.908Z,99.99
2018-09-04T08:35:50.887Z,99.99
2018-09-04T08:36:50.869Z,99.99
2018-09-04T08:37:50.850Z,99.99
2018-09-04T08:38:50.834Z,99.99
2018-09-04T08:39:50.818Z,99.99
2018-09-04T08:40:50.795Z,99.99
2018-09-04T08:41:50.779Z,99.99
2018-09-04T08:42:50.762Z,99.99
2018-09-04T08:43:50.739Z,99.99
2018-09-04T08:44:50.722Z,99.99
2018-09-04T08:45:50.707Z,99.99
2018-09-04T08:46:50.683Z,99.99
2018-09-04T08:47:51.452Z,99.99
2018-09-04T08:48:50.647Z,99.99
2018-09-04T08:49:50.630Z,99.99
2018-09-04T08:50:50.615Z,99.99
2018-09-04T08:51:50.592Z,99.99
2018-09-04T08:52:50.575Z,99.99
2018-09-04T08:53:50.555Z,99.99
2018-09-04T08:54:50.538Z,99.99
2018-09-04T08:55:50.521Z,99.99
2018-09-04T08:56:50.502Z,99.99
2018-09-04T08:57:50.483Z,99.99
2018-09-04T08:58:50.466Z,99.99
2018-09-04T08:59:50.448Z,99.99
2018-09-04T09:00:50.430Z,99.99
2018-09-04T09:01:50.412Z,99.99
2018-09-04T09:02:50.395Z,99.99
2018-09-04T09:03:50.470Z,99.99
2018-09-04T09:04:50.362Z,99.99
2018-09-04T09:05:50.342Z,99.99
2018-09-04T09:06:50.323Z,99.99
2018-09-04T09:07:50.304Z,99.99
2018-09-04T09:08:50.288Z,99.99
2018-09-04T09:09:50.279Z,99.99
2018-09-04T09:10:50.251Z,99.99
2018-09-04T09:11:50.233Z,99.99
2018-09-04T09:12:50.216Z,99.99
2018-09-04T09:13:50.199Z,99.99
2018-09-04T09:14:50.179Z,99.99
2018-09-04T09:15:50.162Z,99.99
2018-09-04T09:16:50.247Z,99.99
2018-09-04T09:17:50.126Z,99.99
2018-09-04T09:18:50.111Z,99.99
2018-09-04T09:19:50.091Z,99.99
2018-09-04T09:20:50.073Z,99.99
2018-09-04T09:21:50.056Z,99.99
2018-09-04T09:22:50.100Z,99.99
2018-09-04T09:23:50.020Z,99.99
2018-09-04T09:24:50.005Z,99.99
2018-09-04T09:25:49.984Z,99.99
2018-09-04T09:26:49.967Z,99.99
2018-09-04T09:27:49.950Z,99.99
2018-09-04T09:28:49.932Z,99.99
2018-09-04T09:29:49.916Z,99.99
2018-09-04T09:30:49.897Z,99.99
2018-09-04T09:31:49.879Z,99.99
2018-09-04T09:32:49.863Z,99.99
2018-09-04T09:33:49.845Z,99.99
2018-09-04T09:34:49.826Z,99.99
2018-09-04T09:35:49.809Z,99.99
2018-09-04T09:36:49.991Z,99.99
2018-09-04T09:37:49.774Z,99.99
2018-09-04T09:38:49.757Z,99.99
2018-09-04T09:39:49.740Z,99.99
2018-09-04T09:40:49.721Z,99.99
2018-09-04T09:41:49.703Z,99.99
2018-09-04T09:42:49.687Z,99.99
2018-09-04T09:43:49.700Z,99.99
2018-09-04T09:44:49.653Z,99.99
2018-09-04T09:45:49.635Z,99.99
2018-09-04T09:46:49.616Z,99.99
2018-09-04T09:47:49.599Z,99.99
2018-09-04T09:48:49.583Z,99.99
2018-09-04T09:49:49.564Z,99.99
2018-09-04T09:50:49.634Z,99.99
2018-09-04T09:51:49.531Z,99.99
2018-09-04T09:52:49.563Z,99.99
2018-09-04T09:53:49.496Z,99.99
2018-09-04T09:54:49.479Z,99.99
2018-09-04T09:55:49.464Z,99.99
2018-09-04T09:56:49.449Z,99.99
2018-09-04T09:57:49.428Z,99.99
2018-09-04T09:58:49.412Z,99.99
2018-09-04T09:59:49.439Z,99.99
2018-09-04T10:00:49.377Z,99.99
2018-09-04T10:01:49.358Z,99.99
2018-09-04T10:02:50.844Z,99.99
2018-09-04T10:03:49.341Z,99.99
2018-09-04T10:04:49.312Z,99.99
2018-09-04T10:05:49.291Z,99.99
2018-09-04T10:06:49.274Z,99.99
2018-09-04T10:07:49.338Z,99.99
2018-09-04T10:08:49.991Z,99.99
2018-09-04T10:09:49.293Z,99.99
2018-09-04T10:10:49.205Z,99.99
2018-09-04T10:11:49.193Z,99.99
2018-09-04T10:12:49.171Z,99.99
2018-09-04T10:13:49.156Z,99.99
2018-09-04T10:14:49.138Z,99.99
2018-09-04T10:15:49.120Z,99.99
2018-09-04T10:16:49.113Z,99.99
2018-09-04T10:17:49.085Z,99.99
2018-09-04T10:18:49.068Z,99.99
2018-09-04T10:19:49.112Z,99.99
2018-09-04T10:20:49.035Z,99.99
2018-09-04T10:21:49.018Z,99.99
2018-09-04T10:22:49.000Z,99.99
2018-09-04T10:23:48.985Z,99.99
2018-09-04T10:24:52.021Z,99.99
2018-09-04T10:25:48.949Z,99.99
2018-09-04T10:26:48.939Z,99.99
2018-09-04T10:27:48.916Z,99.99
2018-09-04T10:28:48.899Z,99.99
2018-09-04T10:29:48.886Z,99.99
2018-09-04T10:30:48.866Z,99.99
2018-09-04T10:31:48.850Z,99.99
2018-09-04T10:32:48.833Z,99.99
2018-09-04T10:33:48.815Z,99.99
2018-09-04T10:34:48.800Z,99.99
2018-09-04T10:35:48.785Z,99.99
2018-09-04T10:36:48.768Z,99.99
2018-09-04T10:37:48.749Z,99.99
2018-09-04T10:38:48.733Z,99.99
2018-09-04T10:39:48.716Z,99.99
2018-09-04T10:40:48.702Z,99.99
2018-09-04T10:41:48.684Z,99.99
2018-09-04T10:42:48.667Z,99.99
2018-09-04T10:43:48.649Z,99.98
2018-09-04T10:44:48.633Z,99.99
2018-09-04T10:45:48.617Z,99.99
2018-09-04T10:46:48.601Z,99.99
2018-09-04T10:47:48.584Z,99.99
2018-09-04T10:48:48.567Z,99.99
2018-09-04T10:49:48.549Z,99.99
2018-09-04T10:50:48.533Z,99.99
2018-09-04T10:51:49.267Z,99.99
2018-09-04T10:52:48.501Z,99.99
2018-09-04T10:53:48.484Z,99.99
2018-09-04T10:54:48.467Z,99.99
2018-09-04T10:55:48.482Z,99.99
2018-09-04T10:56:48.434Z,99.88
2018-09-04T10:57:48.496Z,99.99
2018-09-04T10:58:48.402Z,99.99
2018-09-04T10:59:48.383Z,99.99
2018-09-04T11:00:48.367Z,99.99
2018-09-04T11:01:48.351Z,99.99
2018-09-04T11:02:48.333Z,99.26
2018-09-04T11:03:48.323Z,99.84
2018-09-04T11:04:48.308Z,98.49
2018-09-04T11:05:48.286Z,99.07
2018-09-04T11:06:48.268Z,99.26
2018-09-04T11:07:48.251Z,98.68
2018-09-04T11:08:48.234Z,99.93
2018-09-04T11:09:48.548Z,99.35
2018-09-04T11:10:48.200Z,99.55
2018-09-04T11:11:48.184Z,98.49
2018-09-04T11:12:48.168Z,99.30
2018-09-04T11:13:48.153Z,99.26
2018-09-04T11:14:48.136Z,97.96
2018-09-04T11:15:48.120Z,97.96
2018-09-04T11:16:48.102Z,97.86
2018-09-04T11:17:48.084Z,98.15
2018-09-04T11:18:48.068Z,99.60
2018-09-04T11:19:48.052Z,98.92
2018-09-04T11:20:48.035Z,99.21
2018-09-04T11:21:48.019Z,96.89
2018-09-04T11:22:48.002Z,96.99
2018-09-04T11:23:48.818Z,96.89
2018-09-04T11:24:47.969Z,98.82
2018-09-04T11:25:47.957Z,98.77
2018-09-04T11:26:47.937Z,97.81
2018-09-04T11:27:47.920Z,98.00
2018-09-04T11:28:47.904Z,99.35
2018-09-04T11:29:47.889Z,99.99
2018-09-04T11:30:47.940Z,98.77
2018-09-04T11:31:47.882Z,98.73
2018-09-04T11:32:47.840Z,98.82
2018-09-04T11:33:47.822Z,98.82
2018-09-04T11:34:47.807Z,98.15
2018-09-04T11:35:47.789Z,96.84
2018-09-04T11:36:47.773Z,98.00
2018-09-04T11:37:47.757Z,97.42
2018-09-04T11:38:47.740Z,98.29
2018-09-04T11:39:47.725Z,97.04
2018-09-04T11:40:47.772Z,97.14
2018-09-04T11:41:47.697Z,98.97
2018-09-04T11:42:47.676Z,99.11
2018-09-04T11:43:47.659Z,98.54
2018-09-04T11:44:47.644Z,99.69
2018-09-04T11:45:47.628Z,97.96
2018-09-04T11:46:47.665Z,97.86
2018-09-04T11:47:47.595Z,98.73
2018-09-04T11:48:47.581Z,98.73
2018-09-04T11:49:47.561Z,98.73
2018-09-04T11:50:47.545Z,96.03
2018-09-04T11:51:47.532Z,95.88
2018-09-04T11:52:47.516Z,96.36
2018-09-04T11:53:47.496Z,96.17
2018-09-04T11:54:47.481Z,97.52
2018-09-04T11:55:47.465Z,95.26
2018-09-04T11:56:47.450Z,95.01
2018-09-04T11:57:47.432Z,95.01
2018-09-04T11:58:47.420Z,94.53
2018-09-04T11:59:47.508Z,94.58
2018-09-04T12:00:47.386Z,94.29
2018-09-04T12:01:47.367Z,94.48
2018-09-04T12:02:47.352Z,95.50
2018-09-04T12:03:47.336Z,95.11
2018-09-04T12:04:47.319Z,95.31
2018-09-04T12:05:47.447Z,94.82
2018-09-04T12:06:47.388Z,94.63
2018-09-04T12:07:47.273Z,95.98
2018-09-04T12:08:47.255Z,95.59
2018-09-04T12:09:47.241Z,97.33
2018-09-04T12:10:47.222Z,97.91
2018-09-04T12:11:47.210Z,98.63
2018-09-04T12:12:47.265Z,98.92
2018-09-04T12:13:47.179Z,98.97
2018-09-04T12:14:47.157Z,99.84
2018-09-04T12:15:47.141Z,98.68
2018-09-04T12:16:47.125Z,97.91
2018-09-04T12:17:47.111Z,98.63
2018-09-04T12:18:47.092Z,98.54
2018-09-04T12:19:47.076Z,96.89
2018-09-04T12:20:47.108Z,95.88
2018-09-04T12:21:47.044Z,94.05
2018-09-04T12:22:47.027Z,94.20
2018-09-04T12:23:47.011Z,95.06
2018-09-04T12:24:47.038Z,93.13
2018-09-04T12:25:46.979Z,94.29
2018-09-04T12:26:46.963Z,94.29
2018-09-04T12:27:46.950Z,94.48
2018-09-04T12:28:46.933Z,92.07
2018-09-04T12:29:46.914Z,91.39
2018-09-04T12:30:46.900Z,92.46
2018-09-04T12:31:46.883Z,92.26
2018-09-04T12:32:46.867Z,92.55
2018-09-04T12:33:46.911Z,91.30
2018-09-04T12:34:46.835Z,91.97
2018-09-04T12:35:46.820Z,93.37
2018-09-04T12:36:46.804Z,91.92
2018-09-04T12:37:46.787Z,92.60
2018-09-04T12:38:46.771Z,92.46
2018-09-04T12:39:46.755Z,91.20
2018-09-04T12:40:46.745Z,89.90
2018-09-04T12:41:46.723Z,89.51
2018-09-04T12:42:46.707Z,89.32
2018-09-04T12:43:46.693Z,90.67
2018-09-04T12:44:46.676Z,90.19
2018-09-04T12:45:46.659Z,91.16
2018-09-04T12:46:46.644Z,91.16
2018-09-04T12:47:46.628Z,89.95
2018-09-04T12:48:46.616Z,90.43
2018-09-04T12:49:46.600Z,91.97
2018-09-04T12:50:46.581Z,90.43
2018-09-04T12:51:46.564Z,89.47